sensor_id;sensor_type;location;lat;lon;timestamp;temperature;humidity
75210;DHT22;63796;53.136;14.882;2023-02-01T00:02:26;3.30;99.90
75210;DHT22;63796;53.136;14.882;2023-02-01T00:04:53;3.30;99.90
75210;DHT22;63796;53.136;14.882;2023-02-01T00:07:20;3.30;99.90
75210;DHT22;63796;53.136;14.882;2023-02-01T00:09:48;3.30;99.90
75210;DHT22;63796;53.136;14.882;2023-02-01T00:12:15;3.30;99.90
75210;DHT22;63796;53.136;14.882;2023-02-01T00:14:42;3.30;99.90
75210;DHT22;63796;53.136;14.882;2023-02-01T00:17:09;3.30;99.90
75210;DHT22;63796;53.136;14.882;2023-02-01T00:19:36;3.30;99.90
75210;DHT22;63796;53.136;14.882;2023-02-01T00:22:03;3.30;99.90
75210;DHT22;63796;53.136;14.882;2023-02-01T00:24:30;3.40;99.90
75210;DHT22;63796;53.136;14.882;2023-02-01T00:26:57;3.40;99.90
75210;DHT22;63796;53.136;14.882;2023-02-01T00:29:25;3.40;99.90
75210;DHT22;63796;53.136;14.882;2023-02-01T00:31:52;3.40;99.90
75210;DHT22;63796;53.136;14.882;2023-02-01T00:34:20;3.40;99.90
75210;DHT22;63796;53.136;14.882;2023-02-01T00:36:48;3.40;99.90
75210;DHT22;63796;53.136;14.882;2023-02-01T00:39:15;3.40;99.90
75210;DHT22;63796;53.136;14.882;2023-02-01T00:41:43;3.50;99.90
75210;DHT22;63796;53.136;14.882;2023-02-01T00:44:10;3.50;99.90
75210;DHT22;63796;53.136;14.882;2023-02-01T00:46:37;3.60;99.90
75210;DHT22;63796;53.136;14.882;2023-02-01T00:49:05;3.60;99.90
75210;DHT22;63796;53.136;14.882;2023-02-01T00:51:34;3.70;99.90
75210;DHT22;63796;53.136;14.882;2023-02-01T00:54:01;3.90;99.90
75210;DHT22;63796;53.136;14.882;2023-02-01T00:56:30;4.00;99.90
75210;DHT22;63796;53.136;14.882;2023-02-01T00:58:58;4.10;99.90
75210;DHT22;63796;53.136;14.882;2023-02-01T01:01:26;4.10;99.90
75210;DHT22;63796;53.136;14.882;2023-02-01T01:03:55;4.10;99.90
75210;DHT22;63796;53.136;14.882;2023-02-01T01:06:27;4.00;99.90
75210;DHT22;63796;53.136;14.882;2023-02-01T01:08:57;4.00;99.90
75210;DHT22;63796;53.136;14.882;2023-02-01T01:11:26;4.00;99.90
75210;DHT22;63796;53.136;14.882;2023-02-01T01:13:56;3.90;99.90
75210;DHT22;63796;53.136;14.882;2023-02-01T01:16:24;3.90;99.90
75210;DHT22;63796;53.136;14.882;2023-02-01T01:18:53;3.90;99.90
75210;DHT22;63796;53.136;14.882;2023-02-01T01:21:21;3.90;99.90
75210;DHT22;63796;53.136;14.882;2023-02-01T01:23:50;3.90;99.90
75210;DHT22;63796;53.136;14.882;2023-02-01T01:26:19;3.80;99.90
75210;DHT22;63796;53.136;14.882;2023-02-01T01:28:52;3.70;99.90
75210;DHT22;63796;53.136;14.882;2023-02-01T01:31:21;3.70;99.90
75210;DHT22;63796;53.136;14.882;2023-02-01T01:33:50;3.70;99.90
75210;DHT22;63796;53.136;14.882;2023-02-01T01:36:19;3.70;99.90
75210;DHT22;63796;53.136;14.882;2023-02-01T01:38:47;3.70;99.90
75210;DHT22;63796;53.136;14.882;2023-02-01T01:41:18;3.70;99.90
75210;DHT22;63796;53.136;14.882;2023-02-01T01:44:04;3.70;99.90
75210;DHT22;63796;53.136;14.882;2023-02-01T01:46:34;3.60;99.90
75210;DHT22;63796;53.136;14.882;2023-02-01T01:49:10;3.60;99.90
75210;DHT22;63796;53.136;14.882;2023-02-01T01:51:40;3.60;99.90
75210;DHT22;63796;53.136;14.882;2023-02-01T01:57:12;3.50;99.90
75210;DHT22;63796;53.136;14.882;2023-02-01T01:59:50;3.50;99.90
75210;DHT22;63796;53.136;14.882;2023-02-01T02:02:28;3.50;99.90
75210;DHT22;63796;53.136;14.882;2023-02-01T02:04:55;3.50;99.90
75210;DHT22;63796;53.136;14.882;2023-02-01T02:07:24;3.50;99.90
75210;DHT22;63796;53.136;14.882;2023-02-01T02:09:54;3.70;99.90
75210;DHT22;63796;53.136;14.882;2023-02-01T02:12:27;3.70;99.90
75210;DHT22;63796;53.136;14.882;2023-02-01T02:14:54;3.70;99.90
75210;DHT22;63796;53.136;14.882;2023-02-01T02:20:39;3.60;99.90
75210;DHT22;63796;53.136;14.882;2023-02-01T02:23:31;3.60;99.90
75210;DHT22;63796;53.136;14.882;2023-02-01T02:26:25;3.50;99.90
75210;DHT22;63796;53.136;14.882;2023-02-01T02:45:05;3.50;99.90
75210;DHT22;63796;53.136;14.882;2023-02-01T02:53:18;3.50;99.90
75210;DHT22;63796;53.136;14.882;2023-02-01T02:56:16;3.40;99.90
75210;DHT22;63796;53.136;14.882;2023-02-01T02:59:06;3.50;99.90
75210;DHT22;63796;53.136;14.882;2023-02-01T03:01:54;3.50;99.90
75210;DHT22;63796;53.136;14.882;2023-02-01T03:04:40;3.50;99.90
75210;DHT22;63796;53.136;14.882;2023-02-01T03:13:20;3.50;99.90
75210;DHT22;63796;53.136;14.882;2023-02-01T03:15:56;3.60;99.90
75210;DHT22;63796;53.136;14.882;2023-02-01T03:21:29;3.60;99.90
75210;DHT22;63796;53.136;14.882;2023-02-01T03:24:00;3.60;99.90
75210;DHT22;63796;53.136;14.882;2023-02-01T03:26:31;3.60;99.90
75210;DHT22;63796;53.136;14.882;2023-02-01T03:29:12;3.60;99.90
75210;DHT22;63796;53.136;14.882;2023-02-01T03:31:44;3.50;99.90
75210;DHT22;63796;53.136;14.882;2023-02-01T03:34:12;3.60;99.90
75210;DHT22;63796;53.136;14.882;2023-02-01T03:36:41;3.60;99.90
75210;DHT22;63796;53.136;14.882;2023-02-01T03:39:24;3.60;99.90
75210;DHT22;63796;53.136;14.882;2023-02-01T03:41:55;3.70;99.90
75210;DHT22;63796;53.136;14.882;2023-02-01T03:49:42;3.70;99.90
75210;DHT22;63796;53.136;14.882;2023-02-01T03:52:16;3.60;99.90
75210;DHT22;63796;53.136;14.882;2023-02-01T03:54:47;3.50;99.90
75210;DHT22;63796;53.136;14.882;2023-02-01T03:57:18;3.50;99.90
75210;DHT22;63796;53.136;14.882;2023-02-01T03:59:51;3.50;99.90
75210;DHT22;63796;53.136;14.882;2023-02-01T04:02:18;3.50;99.90
75210;DHT22;63796;53.136;14.882;2023-02-01T04:04:45;3.50;99.90
75210;DHT22;63796;53.136;14.882;2023-02-01T04:07:13;3.50;99.90
75210;DHT22;63796;53.136;14.882;2023-02-01T04:09:40;3.50;99.90
75210;DHT22;63796;53.136;14.882;2023-02-01T04:12:07;3.50;99.90
75210;DHT22;63796;53.136;14.882;2023-02-01T04:14:34;3.50;99.90
75210;DHT22;63796;53.136;14.882;2023-02-01T04:17:01;3.40;99.90
75210;DHT22;63796;53.136;14.882;2023-02-01T04:19:29;3.40;99.90
75210;DHT22;63796;53.136;14.882;2023-02-01T04:21:56;3.40;99.90
75210;DHT22;63796;53.136;14.882;2023-02-01T04:24:23;3.40;99.90
75210;DHT22;63796;53.136;14.882;2023-02-01T04:26:50;3.40;99.90
75210;DHT22;63796;53.136;14.882;2023-02-01T04:29:18;3.40;99.90
75210;DHT22;63796;53.136;14.882;2023-02-01T04:31:45;3.50;99.90
75210;DHT22;63796;53.136;14.882;2023-02-01T04:34:13;3.50;99.90
75210;DHT22;63796;53.136;14.882;2023-02-01T04:36:40;3.50;99.90
75210;DHT22;63796;53.136;14.882;2023-02-01T04:39:08;3.50;99.90
75210;DHT22;63796;53.136;14.882;2023-02-01T04:41:36;3.60;99.90
75210;DHT22;63796;53.136;14.882;2023-02-01T04:44:03;3.60;99.90
75210;DHT22;63796;53.136;14.882;2023-02-01T04:46:31;3.60;99.90
75210;DHT22;63796;53.136;14.882;2023-02-01T04:48:58;3.80;99.90
75210;DHT22;63796;53.136;14.882;2023-02-01T04:51:25;3.90;99.90
75210;DHT22;63796;53.136;14.882;2023-02-01T04:53:52;3.90;99.90
75210;DHT22;63796;53.136;14.882;2023-02-01T04:56:22;3.90;99.90
75210;DHT22;63796;53.136;14.882;2023-02-01T04:58:49;3.90;99.90
75210;DHT22;63796;53.136;14.882;2023-02-01T05:01:17;4.00;99.90
75210;DHT22;63796;53.136;14.882;2023-02-01T05:03:44;4.00;99.90
75210;DHT22;63796;53.136;14.882;2023-02-01T05:06:11;4.00;99.90
75210;DHT22;63796;53.136;14.882;2023-02-01T05:08:38;4.00;99.90
75210;DHT22;63796;53.136;14.882;2023-02-01T05:11:06;4.10;99.90
75210;DHT22;63796;53.136;14.882;2023-02-01T05:13:33;4.10;99.90
75210;DHT22;63796;53.136;14.882;2023-02-01T05:16:16;4.10;99.90
75210;DHT22;63796;53.136;14.882;2023-02-01T05:18:43;4.10;99.90
75210;DHT22;63796;53.136;14.882;2023-02-01T05:21:10;4.10;99.90
75210;DHT22;63796;53.136;14.882;2023-02-01T05:23:38;4.10;99.90
75210;DHT22;63796;53.136;14.882;2023-02-01T05:26:25;4.20;99.90
75210;DHT22;63796;53.136;14.882;2023-02-01T05:28:53;4.20;99.90
75210;DHT22;63796;53.136;14.882;2023-02-01T05:31:20;4.20;99.90
75210;DHT22;63796;53.136;14.882;2023-02-01T05:33:48;4.20;99.90
75210;DHT22;63796;53.136;14.882;2023-02-01T05:36:15;4.20;99.90
75210;DHT22;63796;53.136;14.882;2023-02-01T05:38:42;4.20;99.90
75210;DHT22;63796;53.136;14.882;2023-02-01T05:41:10;4.20;99.90
75210;DHT22;63796;53.136;14.882;2023-02-01T05:43:37;4.20;99.90
75210;DHT22;63796;53.136;14.882;2023-02-01T05:46:04;4.20;99.90
75210;DHT22;63796;53.136;14.882;2023-02-01T05:48:31;4.20;99.90
75210;DHT22;63796;53.136;14.882;2023-02-01T05:50:59;4.20;99.90
75210;DHT22;63796;53.136;14.882;2023-02-01T05:53:26;4.20;99.90
75210;DHT22;63796;53.136;14.882;2023-02-01T05:55:53;4.20;99.90
75210;DHT22;63796;53.136;14.882;2023-02-01T05:58:20;4.20;99.90
75210;DHT22;63796;53.136;14.882;2023-02-01T06:00:48;4.20;99.90
75210;DHT22;63796;53.136;14.882;2023-02-01T06:03:15;4.10;99.90
75210;DHT22;63796;53.136;14.882;2023-02-01T06:05:46;4.10;99.90
75210;DHT22;63796;53.136;14.882;2023-02-01T06:08:14;4.00;99.90
75210;DHT22;63796;53.136;14.882;2023-02-01T06:10:41;4.00;99.90
75210;DHT22;63796;53.136;14.882;2023-02-01T06:13:09;4.00;99.90
75210;DHT22;63796;53.136;14.882;2023-02-01T06:15:36;4.00;99.90
75210;DHT22;63796;53.136;14.882;2023-02-01T06:18:04;4.00;99.90
75210;DHT22;63796;53.136;14.882;2023-02-01T06:20:31;4.00;99.90
75210;DHT22;63796;53.136;14.882;2023-02-01T06:22:59;4.10;99.90
75210;DHT22;63796;53.136;14.882;2023-02-01T06:25:26;4.10;99.90
75210;DHT22;63796;53.136;14.882;2023-02-01T06:27:53;4.20;99.90
75210;DHT22;63796;53.136;14.882;2023-02-01T06:30:20;4.10;99.90
75210;DHT22;63796;53.136;14.882;2023-02-01T06:32:50;4.20;99.90
75210;DHT22;63796;53.136;14.882;2023-02-01T06:35:21;4.20;99.90
75210;DHT22;63796;53.136;14.882;2023-02-01T06:37:48;4.30;99.90
75210;DHT22;63796;53.136;14.882;2023-02-01T06:40:15;4.30;99.90
75210;DHT22;63796;53.136;14.882;2023-02-01T06:42:43;4.30;99.90
75210;DHT22;63796;53.136;14.882;2023-02-01T06:45:10;4.30;99.90
75210;DHT22;63796;53.136;14.882;2023-02-01T06:47:37;4.30;99.90
75210;DHT22;63796;53.136;14.882;2023-02-01T06:50:05;4.30;99.90
75210;DHT22;63796;53.136;14.882;2023-02-01T06:52:33;4.40;99.90
75210;DHT22;63796;53.136;14.882;2023-02-01T06:55:02;4.40;99.90
75210;DHT22;63796;53.136;14.882;2023-02-01T06:57:30;4.40;99.90
75210;DHT22;63796;53.136;14.882;2023-02-01T06:59:59;4.30;99.90
75210;DHT22;63796;53.136;14.882;2023-02-01T07:02:27;4.30;99.90
75210;DHT22;63796;53.136;14.882;2023-02-01T07:04:54;4.20;99.90
75210;DHT22;63796;53.136;14.882;2023-02-01T07:07:22;4.20;99.90
75210;DHT22;63796;53.136;14.882;2023-02-01T07:09:49;4.30;99.90
75210;DHT22;63796;53.136;14.882;2023-02-01T07:12:16;4.30;99.90
75210;DHT22;63796;53.136;14.882;2023-02-01T07:14:45;4.20;99.90
75210;DHT22;63796;53.136;14.882;2023-02-01T07:17:12;4.20;99.90
75210;DHT22;63796;53.136;14.882;2023-02-01T07:19:39;4.10;99.90
75210;DHT22;63796;53.136;14.882;2023-02-01T07:22:07;4.10;99.90
75210;DHT22;63796;53.136;14.882;2023-02-01T07:24:34;4.20;99.90
75210;DHT22;63796;53.136;14.882;2023-02-01T07:27:01;4.30;99.90
75210;DHT22;63796;53.136;14.882;2023-02-01T07:29:29;4.30;99.90
75210;DHT22;63796;53.136;14.882;2023-02-01T07:31:56;4.30;99.90
75210;DHT22;63796;53.136;14.882;2023-02-01T07:34:23;4.40;99.90
75210;DHT22;63796;53.136;14.882;2023-02-01T07:36:50;4.40;99.90
75210;DHT22;63796;53.136;14.882;2023-02-01T07:39:18;4.50;99.90
75210;DHT22;63796;53.136;14.882;2023-02-01T07:41:45;4.50;99.90
75210;DHT22;63796;53.136;14.882;2023-02-01T07:44:13;4.60;99.90
75210;DHT22;63796;53.136;14.882;2023-02-01T07:46:40;4.60;99.90
75210;DHT22;63796;53.136;14.882;2023-02-01T07:49:07;4.70;99.90
75210;DHT22;63796;53.136;14.882;2023-02-01T07:51:35;4.70;99.90
75210;DHT22;63796;53.136;14.882;2023-02-01T07:54:03;4.70;99.90
75210;DHT22;63796;53.136;14.882;2023-02-01T07:56:30;4.70;99.90
75210;DHT22;63796;53.136;14.882;2023-02-01T07:58:58;4.70;99.90
75210;DHT22;63796;53.136;14.882;2023-02-01T08:01:27;4.70;99.90
75210;DHT22;63796;53.136;14.882;2023-02-01T08:03:57;4.60;99.90
75210;DHT22;63796;53.136;14.882;2023-02-01T08:06:26;4.70;99.90
75210;DHT22;63796;53.136;14.882;2023-02-01T08:08:55;4.70;99.90
75210;DHT22;63796;53.136;14.882;2023-02-01T08:11:23;4.70;99.90
75210;DHT22;63796;53.136;14.882;2023-02-01T08:13:52;4.70;99.90
75210;DHT22;63796;53.136;14.882;2023-02-01T08:16:20;4.80;99.90
75210;DHT22;63796;53.136;14.882;2023-02-01T08:18:48;4.80;99.90
75210;DHT22;63796;53.136;14.882;2023-02-01T08:21:17;4.80;99.90
75210;DHT22;63796;53.136;14.882;2023-02-01T08:23:47;4.90;99.90
75210;DHT22;63796;53.136;14.882;2023-02-01T08:26:16;4.90;99.90
75210;DHT22;63796;53.136;14.882;2023-02-01T08:28:50;5.10;99.90
75210;DHT22;63796;53.136;14.882;2023-02-01T08:31:25;5.00;99.90
75210;DHT22;63796;53.136;14.882;2023-02-01T08:33:55;5.00;99.90
75210;DHT22;63796;53.136;14.882;2023-02-01T08:36:27;5.00;99.90
75210;DHT22;63796;53.136;14.882;2023-02-01T08:38:56;5.00;99.90
75210;DHT22;63796;53.136;14.882;2023-02-01T08:41:24;5.20;99.90
75210;DHT22;63796;53.136;14.882;2023-02-01T08:43:53;5.20;99.90
75210;DHT22;63796;53.136;14.882;2023-02-01T08:46:21;5.30;99.90
75210;DHT22;63796;53.136;14.882;2023-02-01T08:48:50;5.30;99.90
75210;DHT22;63796;53.136;14.882;2023-02-01T08:51:19;5.20;99.90
75210;DHT22;63796;53.136;14.882;2023-02-01T08:53:48;5.10;99.90
75210;DHT22;63796;53.136;14.882;2023-02-01T08:56:16;5.10;99.90
75210;DHT22;63796;53.136;14.882;2023-02-01T08:58:45;5.10;99.90
75210;DHT22;63796;53.136;14.882;2023-02-01T09:01:13;5.00;99.90
75210;DHT22;63796;53.136;14.882;2023-02-01T09:03:42;5.00;99.90
75210;DHT22;63796;53.136;14.882;2023-02-01T09:06:10;5.00;99.90
75210;DHT22;63796;53.136;14.882;2023-02-01T09:08:39;5.00;99.90
75210;DHT22;63796;53.136;14.882;2023-02-01T09:11:09;5.00;99.90
75210;DHT22;63796;53.136;14.882;2023-02-01T09:13:39;5.00;99.90
75210;DHT22;63796;53.136;14.882;2023-02-01T09:16:06;5.00;99.90
75210;DHT22;63796;53.136;14.882;2023-02-01T09:18:34;5.00;99.90
75210;DHT22;63796;53.136;14.882;2023-02-01T09:21:07;5.00;99.90
75210;DHT22;63796;53.136;14.882;2023-02-01T09:23:35;5.10;99.90
75210;DHT22;63796;53.136;14.882;2023-02-01T09:26:04;5.20;99.90
75210;DHT22;63796;53.136;14.882;2023-02-01T09:28:32;5.20;99.90
75210;DHT22;63796;53.136;14.882;2023-02-01T09:31:00;5.30;99.90
75210;DHT22;63796;53.136;14.882;2023-02-01T09:33:28;5.30;99.90
75210;DHT22;63796;53.136;14.882;2023-02-01T09:35:59;5.20;99.90
75210;DHT22;63796;53.136;14.882;2023-02-01T09:38:29;5.10;99.90
75210;DHT22;63796;53.136;14.882;2023-02-01T09:40:58;5.30;99.90
75210;DHT22;63796;53.136;14.882;2023-02-01T09:43:48;5.30;99.90
75210;DHT22;63796;53.136;14.882;2023-02-01T09:46:23;5.40;99.90
75210;DHT22;63796;53.136;14.882;2023-02-01T09:48:55;5.50;99.90
75210;DHT22;63796;53.136;14.882;2023-02-01T09:51:39;5.40;99.90
75210;DHT22;63796;53.136;14.882;2023-02-01T09:59:32;5.80;99.90
75210;DHT22;63796;53.136;14.882;2023-02-01T10:02:24;5.60;99.90
75210;DHT22;63796;53.136;14.882;2023-02-01T10:04:57;5.70;99.90
75210;DHT22;63796;53.136;14.882;2023-02-01T10:07:37;5.70;99.90
75210;DHT22;63796;53.136;14.882;2023-02-01T10:19:03;6.00;99.90
75210;DHT22;63796;53.136;14.882;2023-02-01T10:22:02;6.10;99.90
75210;DHT22;63796;53.136;14.882;2023-02-01T10:27:16;6.90;99.90
75210;DHT22;63796;53.136;14.882;2023-02-01T10:29:48;6.40;99.90
75210;DHT22;63796;53.136;14.882;2023-02-01T10:32:28;6.10;99.90
75210;DHT22;63796;53.136;14.882;2023-02-01T10:34:59;6.10;99.90
75210;DHT22;63796;53.136;14.882;2023-02-01T10:37:29;5.90;99.90
75210;DHT22;63796;53.136;14.882;2023-02-01T10:40:00;5.80;99.90
75210;DHT22;63796;53.136;14.882;2023-02-01T10:42:32;5.80;99.90
75210;DHT22;63796;53.136;14.882;2023-02-01T10:45:00;5.90;99.90
75210;DHT22;63796;53.136;14.882;2023-02-01T10:47:30;5.90;99.90
75210;DHT22;63796;53.136;14.882;2023-02-01T10:52:54;6.10;99.90
75210;DHT22;63796;53.136;14.882;2023-02-01T10:58:01;5.90;99.90
75210;DHT22;63796;53.136;14.882;2023-02-01T11:00:37;5.90;99.90
75210;DHT22;63796;53.136;14.882;2023-02-01T11:03:28;6.00;99.90
75210;DHT22;63796;53.136;14.882;2023-02-01T11:05:57;6.10;99.90
75210;DHT22;63796;53.136;14.882;2023-02-01T11:08:25;6.20;99.90
75210;DHT22;63796;53.136;14.882;2023-02-01T11:10:59;7.50;99.90
75210;DHT22;63796;53.136;14.882;2023-02-01T11:13:29;7.50;99.90
75210;DHT22;63796;53.136;14.882;2023-02-01T11:16:02;7.10;99.90
75210;DHT22;63796;53.136;14.882;2023-02-01T11:18:32;7.00;99.90
75210;DHT22;63796;53.136;14.882;2023-02-01T11:21:04;6.80;99.90
75210;DHT22;63796;53.136;14.882;2023-02-01T11:23:32;6.70;99.90
75210;DHT22;63796;53.136;14.882;2023-02-01T11:26:02;6.40;99.90
75210;DHT22;63796;53.136;14.882;2023-02-01T11:28:38;6.40;99.90
75210;DHT22;63796;53.136;14.882;2023-02-01T11:31:09;6.50;99.90
75210;DHT22;63796;53.136;14.882;2023-02-01T11:33:43;6.40;99.90
75210;DHT22;63796;53.136;14.882;2023-02-01T11:36:18;6.40;99.90
75210;DHT22;63796;53.136;14.882;2023-02-01T11:38:52;6.60;99.90
75210;DHT22;63796;53.136;14.882;2023-02-01T11:41:21;6.70;99.90
75210;DHT22;63796;53.136;14.882;2023-02-01T11:44:02;6.70;99.90
75210;DHT22;63796;53.136;14.882;2023-02-01T11:49:56;6.40;99.90
75210;DHT22;63796;53.136;14.882;2023-02-01T12:03:29;5.80;99.90
75210;DHT22;63796;53.136;14.882;2023-02-01T12:42:47;6.60;99.90
75210;DHT22;63796;53.136;14.882;2023-02-01T12:50:56;6.70;99.90
75210;DHT22;63796;53.136;14.882;2023-02-01T12:53:42;6.70;99.90
75210;DHT22;63796;53.136;14.882;2023-02-01T12:56:21;6.70;99.90
75210;DHT22;63796;53.136;14.882;2023-02-01T12:58:53;6.70;99.90
75210;DHT22;63796;53.136;14.882;2023-02-01T13:01:41;6.60;99.90
75210;DHT22;63796;53.136;14.882;2023-02-01T13:04:25;6.50;99.90
75210;DHT22;63796;53.136;14.882;2023-02-01T13:12:32;6.70;99.90
75210;DHT22;63796;53.136;14.882;2023-02-01T13:15:11;6.70;99.90
75210;DHT22;63796;53.136;14.882;2023-02-01T13:17:44;6.70;99.90
75210;DHT22;63796;53.136;14.882;2023-02-01T13:20:21;6.80;99.90
75210;DHT22;63796;53.136;14.882;2023-02-01T13:23:04;7.00;99.90
75210;DHT22;63796;53.136;14.882;2023-02-01T13:25:41;7.20;99.90
75210;DHT22;63796;53.136;14.882;2023-02-01T13:28:17;7.30;99.90
75210;DHT22;63796;53.136;14.882;2023-02-01T13:33:44;7.40;99.90
75210;DHT22;63796;53.136;14.882;2023-02-01T13:36:27;7.70;99.90
75210;DHT22;63796;53.136;14.882;2023-02-01T13:47:22;7.40;99.90
75210;DHT22;63796;53.136;14.882;2023-02-01T13:49:51;7.20;99.90
75210;DHT22;63796;53.136;14.882;2023-02-01T13:52:42;7.10;99.90
75210;DHT22;63796;53.136;14.882;2023-02-01T13:55:15;7.30;99.90
75210;DHT22;63796;53.136;14.882;2023-02-01T13:57:59;7.20;99.90
75210;DHT22;63796;53.136;14.882;2023-02-01T14:44:46;6.10;99.90
75210;DHT22;63796;53.136;14.882;2023-02-01T14:52:37;6.00;99.90
75210;DHT22;63796;53.136;14.882;2023-02-01T15:01:00;5.90;99.90
75210;DHT22;63796;53.136;14.882;2023-02-01T15:06:20;6.00;99.90
75210;DHT22;63796;53.136;14.882;2023-02-01T15:08:48;5.90;99.90
75210;DHT22;63796;53.136;14.882;2023-02-01T15:11:15;5.90;99.90
75210;DHT22;63796;53.136;14.882;2023-02-01T15:13:50;5.90;99.90
75210;DHT22;63796;53.136;14.882;2023-02-01T15:16:24;5.90;99.90
75210;DHT22;63796;53.136;14.882;2023-02-01T15:19:08;5.90;99.90
75210;DHT22;63796;53.136;14.882;2023-02-01T15:21:44;5.70;99.90
75210;DHT22;63796;53.136;14.882;2023-02-01T15:24:25;5.70;99.90
75210;DHT22;63796;53.136;14.882;2023-02-01T15:26:53;5.70;99.90
75210;DHT22;63796;53.136;14.882;2023-02-01T15:29:23;5.70;99.90
75210;DHT22;63796;53.136;14.882;2023-02-01T15:31:54;5.60;99.90
75210;DHT22;63796;53.136;14.882;2023-02-01T15:34:21;5.60;99.90
75210;DHT22;63796;53.136;14.882;2023-02-01T15:36:49;5.70;99.90
75210;DHT22;63796;53.136;14.882;2023-02-01T15:39:29;5.70;99.90
75210;DHT22;63796;53.136;14.882;2023-02-01T15:42:00;5.70;99.90
75210;DHT22;63796;53.136;14.882;2023-02-01T15:44:40;5.60;99.90
75210;DHT22;63796;53.136;14.882;2023-02-01T15:47:16;5.40;99.90
75210;DHT22;63796;53.136;14.882;2023-02-01T15:49:47;5.30;99.90
75210;DHT22;63796;53.136;14.882;2023-02-01T15:54:56;5.30;99.90
75210;DHT22;63796;53.136;14.882;2023-02-01T15:57:33;5.30;99.90
75210;DHT22;63796;53.136;14.882;2023-02-01T16:00:07;5.20;99.90
75210;DHT22;63796;53.136;14.882;2023-02-01T16:05:55;5.10;99.90
75210;DHT22;63796;53.136;14.882;2023-02-01T16:08:26;5.10;99.90
75210;DHT22;63796;53.136;14.882;2023-02-01T16:13:35;5.00;99.90
75210;DHT22;63796;53.136;14.882;2023-02-01T16:16:02;5.00;99.90
75210;DHT22;63796;53.136;14.882;2023-02-01T16:18:34;4.90;99.90
75210;DHT22;63796;53.136;14.882;2023-02-01T16:21:02;4.90;99.90
75210;DHT22;63796;53.136;14.882;2023-02-01T16:23:29;4.90;99.90
75210;DHT22;63796;53.136;14.882;2023-02-01T16:25:58;4.90;99.90
75210;DHT22;63796;53.136;14.882;2023-02-01T16:28:25;4.90;99.90
75210;DHT22;63796;53.136;14.882;2023-02-01T16:30:52;4.90;99.90
75210;DHT22;63796;53.136;14.882;2023-02-01T16:33:21;4.90;99.90
75210;DHT22;63796;53.136;14.882;2023-02-01T16:35:50;4.90;99.90
75210;DHT22;63796;53.136;14.882;2023-02-01T16:38:18;4.90;99.90
75210;DHT22;63796;53.136;14.882;2023-02-01T16:40:49;4.90;99.90
75210;DHT22;63796;53.136;14.882;2023-02-01T16:45:45;4.80;99.90
75210;DHT22;63796;53.136;14.882;2023-02-01T16:50:55;4.70;99.90
75210;DHT22;63796;53.136;14.882;2023-02-01T16:53:24;4.60;99.90
75210;DHT22;63796;53.136;14.882;2023-02-01T16:55:54;4.70;99.90
75210;DHT22;63796;53.136;14.882;2023-02-01T16:58:24;4.60;99.90
75210;DHT22;63796;53.136;14.882;2023-02-01T17:00:52;4.70;99.90
75210;DHT22;63796;53.136;14.882;2023-02-01T17:03:21;4.60;99.90
75210;DHT22;63796;53.136;14.882;2023-02-01T17:05:49;4.60;99.90
75210;DHT22;63796;53.136;14.882;2023-02-01T17:08:44;4.70;99.90
75210;DHT22;63796;53.136;14.882;2023-02-01T17:11:16;4.70;99.90
75210;DHT22;63796;53.136;14.882;2023-02-01T17:13:44;4.70;99.90
75210;DHT22;63796;53.136;14.882;2023-02-01T17:18:50;4.70;99.90
75210;DHT22;63796;53.136;14.882;2023-02-01T17:21:21;4.80;99.90
75210;DHT22;63796;53.136;14.882;2023-02-01T17:23:50;4.80;99.90
75210;DHT22;63796;53.136;14.882;2023-02-01T17:26:21;4.80;99.90
75210;DHT22;63796;53.136;14.882;2023-02-01T17:28:48;4.80;99.90
75210;DHT22;63796;53.136;14.882;2023-02-01T17:31:15;4.80;99.90
75210;DHT22;63796;53.136;14.882;2023-02-01T17:33:43;4.80;99.90
75210;DHT22;63796;53.136;14.882;2023-02-01T17:36:12;4.80;99.90
75210;DHT22;63796;53.136;14.882;2023-02-01T17:38:41;4.80;99.90
75210;DHT22;63796;53.136;14.882;2023-02-01T17:41:19;4.80;99.90
75210;DHT22;63796;53.136;14.882;2023-02-01T17:43:47;4.70;99.90
75210;DHT22;63796;53.136;14.882;2023-02-01T17:46:16;4.70;99.90
75210;DHT22;63796;53.136;14.882;2023-02-01T17:48:53;4.80;99.90
75210;DHT22;63796;53.136;14.882;2023-02-01T17:51:24;4.80;99.90
75210;DHT22;63796;53.136;14.882;2023-02-01T17:53:53;4.80;99.90
75210;DHT22;63796;53.136;14.882;2023-02-01T17:56:22;4.80;99.90
75210;DHT22;63796;53.136;14.882;2023-02-01T17:58:51;4.70;99.90
75210;DHT22;63796;53.136;14.882;2023-02-01T18:01:19;4.70;99.90
75210;DHT22;63796;53.136;14.882;2023-02-01T18:03:48;4.70;99.90
75210;DHT22;63796;53.136;14.882;2023-02-01T18:06:17;4.80;99.90
75210;DHT22;63796;53.136;14.882;2023-02-01T18:08:47;4.80;99.90
75210;DHT22;63796;53.136;14.882;2023-02-01T18:11:15;4.80;99.90
75210;DHT22;63796;53.136;14.882;2023-02-01T18:13:45;4.80;99.90
75210;DHT22;63796;53.136;14.882;2023-02-01T18:16:27;4.80;99.90
75210;DHT22;63796;53.136;14.882;2023-02-01T18:18:56;4.70;99.90
75210;DHT22;63796;53.136;14.882;2023-02-01T18:21:34;4.70;99.90
75210;DHT22;63796;53.136;14.882;2023-02-01T18:24:04;4.70;99.90
75210;DHT22;63796;53.136;14.882;2023-02-01T18:26:31;4.70;99.90
75210;DHT22;63796;53.136;14.882;2023-02-01T18:28:58;4.70;99.90
75210;DHT22;63796;53.136;14.882;2023-02-01T18:31:26;4.70;99.90
75210;DHT22;63796;53.136;14.882;2023-02-01T18:33:57;4.70;99.90
75210;DHT22;63796;53.136;14.882;2023-02-01T18:36:26;4.70;99.90
75210;DHT22;63796;53.136;14.882;2023-02-01T18:38:54;4.80;99.90
75210;DHT22;63796;53.136;14.882;2023-02-01T18:41:23;4.80;99.90
75210;DHT22;63796;53.136;14.882;2023-02-01T18:43:51;4.80;99.90
75210;DHT22;63796;53.136;14.882;2023-02-01T18:46:19;4.80;99.90
75210;DHT22;63796;53.136;14.882;2023-02-01T18:48:47;4.80;99.90
75210;DHT22;63796;53.136;14.882;2023-02-01T18:51:16;4.80;99.90
75210;DHT22;63796;53.136;14.882;2023-02-01T18:53:46;4.80;99.90
75210;DHT22;63796;53.136;14.882;2023-02-01T18:56:14;4.80;99.90
75210;DHT22;63796;53.136;14.882;2023-02-01T18:58:46;4.80;99.90
75210;DHT22;63796;53.136;14.882;2023-02-01T19:01:14;4.80;99.90
75210;DHT22;63796;53.136;14.882;2023-02-01T19:03:46;4.80;99.90
75210;DHT22;63796;53.136;14.882;2023-02-01T19:06:34;4.90;99.90
75210;DHT22;63796;53.136;14.882;2023-02-01T19:09:01;4.80;99.90
75210;DHT22;63796;53.136;14.882;2023-02-01T19:11:28;4.80;99.90
75210;DHT22;63796;53.136;14.882;2023-02-01T19:13:56;4.70;99.90
75210;DHT22;63796;53.136;14.882;2023-02-01T19:16:23;4.60;99.90
75210;DHT22;63796;53.136;14.882;2023-02-01T19:18:52;4.60;99.90
75210;DHT22;63796;53.136;14.882;2023-02-01T19:21:20;4.70;99.90
75210;DHT22;63796;53.136;14.882;2023-02-01T19:23:47;4.70;99.90
75210;DHT22;63796;53.136;14.882;2023-02-01T19:26:15;4.70;99.90